sensor_id;sensor_type;location;lat;lon;timestamp;temperature;humidity
12006;DHT22;6062;47.294;12.182;2022-07-03T00:01:16;16.80;63.10
12006;DHT22;6062;47.294;12.182;2022-07-03T00:03:42;16.70;62.10
12006;DHT22;6062;47.294;12.182;2022-07-03T00:06:09;16.70;61.50
12006;DHT22;6062;47.294;12.182;2022-07-03T00:08:35;16.70;61.20
12006;DHT22;6062;47.294;12.182;2022-07-03T00:11:01;16.70;60.90
12006;DHT22;6062;47.294;12.182;2022-07-03T00:13:27;16.70;60.70
12006;DHT22;6062;47.294;12.182;2022-07-03T00:15:53;16.60;60.00
12006;DHT22;6062;47.294;12.182;2022-07-03T00:18:19;16.60;59.70
12006;DHT22;6062;47.294;12.182;2022-07-03T00:20:48;16.70;59.10
12006;DHT22;6062;47.294;12.182;2022-07-03T00:23:18;16.70;58.40
12006;DHT22;6062;47.294;12.182;2022-07-03T00:25:48;16.60;57.60
12006;DHT22;6062;47.294;12.182;2022-07-03T00:28:18;16.60;57.60
12006;DHT22;6062;47.294;12.182;2022-07-03T00:30:47;16.60;57.10
12006;DHT22;6062;47.294;12.182;2022-07-03T00:33:14;16.60;56.60
12006;DHT22;6062;47.294;12.182;2022-07-03T00:35:42;16.60;56.60
12006;DHT22;6062;47.294;12.182;2022-07-03T00:38:11;16.60;55.70
12006;DHT22;6062;47.294;12.182;2022-07-03T00:40:37;16.60;54.70
12006;DHT22;6062;47.294;12.182;2022-07-03T00:43:04;16.60;54.60
12006;DHT22;6062;47.294;12.182;2022-07-03T00:45:34;16.60;54.90
12006;DHT22;6062;47.294;12.182;2022-07-03T00:48:00;16.50;53.80
12006;DHT22;6062;47.294;12.182;2022-07-03T00:50:34;16.50;53.90
12006;DHT22;6062;47.294;12.182;2022-07-03T00:53:02;16.50;53.80
12006;DHT22;6062;47.294;12.182;2022-07-03T00:55:29;16.50;53.30
12006;DHT22;6062;47.294;12.182;2022-07-03T00:57:56;16.50;52.90
12006;DHT22;6062;47.294;12.182;2022-07-03T01:00:23;16.40;52.50
12006;DHT22;6062;47.294;12.182;2022-07-03T01:02:56;16.40;52.30
12006;DHT22;6062;47.294;12.182;2022-07-03T01:09:12;16.40;53.00
12006;DHT22;6062;47.294;12.182;2022-07-03T01:28:14;16.30;51.50
12006;DHT22;6062;47.294;12.182;2022-07-03T01:30:47;16.20;51.20
12006;DHT22;6062;47.294;12.182;2022-07-03T01:33:18;16.20;50.80
12006;DHT22;6062;47.294;12.182;2022-07-03T01:38:32;16.20;51.10
12006;DHT22;6062;47.294;12.182;2022-07-03T01:41:05;16.20;51.00
12006;DHT22;6062;47.294;12.182;2022-07-03T01:43:38;16.20;50.00
12006;DHT22;6062;47.294;12.182;2022-07-03T01:46:10;16.20;49.50
12006;DHT22;6062;47.294;12.182;2022-07-03T01:48:41;16.10;49.50
12006;DHT22;6062;47.294;12.182;2022-07-03T01:51:12;16.10;48.80
12006;DHT22;6062;47.294;12.182;2022-07-03T01:53:44;16.10;49.50
12006;DHT22;6062;47.294;12.182;2022-07-03T01:56:12;16.10;48.90
12006;DHT22;6062;47.294;12.182;2022-07-03T01:58:38;16.10;49.00
12006;DHT22;6062;47.294;12.182;2022-07-03T02:01:19;16.10;49.00
12006;DHT22;6062;47.294;12.182;2022-07-03T02:03:59;16.20;49.10
12006;DHT22;6062;47.294;12.182;2022-07-03T02:06:40;16.20;48.80
12006;DHT22;6062;47.294;12.182;2022-07-03T02:09:10;16.20;48.40
12006;DHT22;6062;47.294;12.182;2022-07-03T02:11:43;16.20;48.30
12006;DHT22;6062;47.294;12.182;2022-07-03T02:14:23;16.20;48.00
12006;DHT22;6062;47.294;12.182;2022-07-03T02:17:09;16.20;48.00
12006;DHT22;6062;47.294;12.182;2022-07-03T02:19:56;16.20;47.70
12006;DHT22;6062;47.294;12.182;2022-07-03T02:22:33;16.20;47.90
12006;DHT22;6062;47.294;12.182;2022-07-03T02:25:19;16.20;48.40
12006;DHT22;6062;47.294;12.182;2022-07-03T02:28:01;16.20;47.90
12006;DHT22;6062;47.294;12.182;2022-07-03T02:30:30;16.20;48.10
12006;DHT22;6062;47.294;12.182;2022-07-03T02:33:01;16.30;48.40
12006;DHT22;6062;47.294;12.182;2022-07-03T02:35:34;16.30;47.50
12006;DHT22;6062;47.294;12.182;2022-07-03T02:38:17;16.30;46.80
12006;DHT22;6062;47.294;12.182;2022-07-03T02:43:21;16.30;47.30
12006;DHT22;6062;47.294;12.182;2022-07-03T02:48:57;16.40;47.90
12006;DHT22;6062;47.294;12.182;2022-07-03T02:51:35;16.40;48.10
12006;DHT22;6062;47.294;12.182;2022-07-03T02:54:09;16.40;48.20
12006;DHT22;6062;47.294;12.182;2022-07-03T03:05:27;16.40;47.80
12006;DHT22;6062;47.294;12.182;2022-07-03T03:08:16;16.40;48.00
12006;DHT22;6062;47.294;12.182;2022-07-03T03:11:08;16.40;47.60
12006;DHT22;6062;47.294;12.182;2022-07-03T03:13:39;16.40;47.50
12006;DHT22;6062;47.294;12.182;2022-07-03T03:16:14;16.40;47.40
12006;DHT22;6062;47.294;12.182;2022-07-03T03:18:40;16.40;47.40
12006;DHT22;6062;47.294;12.182;2022-07-03T03:21:11;16.40;47.70
12006;DHT22;6062;47.294;12.182;2022-07-03T03:23:48;16.40;47.60
12006;DHT22;6062;47.294;12.182;2022-07-03T03:26:21;16.40;47.60
12006;DHT22;6062;47.294;12.182;2022-07-03T03:28:49;16.40;47.90
12006;DHT22;6062;47.294;12.182;2022-07-03T03:31:18;16.40;48.10
12006;DHT22;6062;47.294;12.182;2022-07-03T03:33:47;16.30;48.10
12006;DHT22;6062;47.294;12.182;2022-07-03T03:36:16;16.30;47.80
12006;DHT22;6062;47.294;12.182;2022-07-03T03:38:44;16.30;48.00
12006;DHT22;6062;47.294;12.182;2022-07-03T03:41:11;16.30;48.10
12006;DHT22;6062;47.294;12.182;2022-07-03T03:43:37;16.30;47.90
12006;DHT22;6062;47.294;12.182;2022-07-03T03:46:04;16.30;47.70
12006;DHT22;6062;47.294;12.182;2022-07-03T03:48:33;16.30;47.40
12006;DHT22;6062;47.294;12.182;2022-07-03T03:51:01;16.30;47.20
12006;DHT22;6062;47.294;12.182;2022-07-03T03:53:28;16.30;47.30
12006;DHT22;6062;47.294;12.182;2022-07-03T03:58:39;16.20;47.90
12006;DHT22;6062;47.294;12.182;2022-07-03T04:01:08;16.30;48.50
12006;DHT22;6062;47.294;12.182;2022-07-03T04:03:36;16.20;48.70
12006;DHT22;6062;47.294;12.182;2022-07-03T04:06:03;16.30;49.00
12006;DHT22;6062;47.294;12.182;2022-07-03T04:08:30;16.30;49.10
12006;DHT22;6062;47.294;12.182;2022-07-03T04:10:56;16.30;49.10
12006;DHT22;6062;47.294;12.182;2022-07-03T04:13:23;16.30;49.30
12006;DHT22;6062;47.294;12.182;2022-07-03T04:15:51;16.30;49.40
12006;DHT22;6062;47.294;12.182;2022-07-03T04:18:18;16.30;49.30
12006;DHT22;6062;47.294;12.182;2022-07-03T04:20:44;16.40;49.20
12006;DHT22;6062;47.294;12.182;2022-07-03T04:23:10;16.40;49.40
12006;DHT22;6062;47.294;12.182;2022-07-03T04:25:36;16.50;49.60
12006;DHT22;6062;47.294;12.182;2022-07-03T04:28:02;16.50;49.00
12006;DHT22;6062;47.294;12.182;2022-07-03T04:30:27;16.60;49.20
12006;DHT22;6062;47.294;12.182;2022-07-03T04:32:53;16.60;49.40
12006;DHT22;6062;47.294;12.182;2022-07-03T04:35:19;16.70;49.50
12006;DHT22;6062;47.294;12.182;2022-07-03T04:37:45;16.70;49.80
12006;DHT22;6062;47.294;12.182;2022-07-03T04:40:12;16.80;49.50
12006;DHT22;6062;47.294;12.182;2022-07-03T04:42:38;16.90;49.70
12006;DHT22;6062;47.294;12.182;2022-07-03T04:45:04;17.00;50.30
12006;DHT22;6062;47.294;12.182;2022-07-03T04:47:31;17.00;50.60
12006;DHT22;6062;47.294;12.182;2022-07-03T04:49:56;17.10;51.10
12006;DHT22;6062;47.294;12.182;2022-07-03T04:52:22;17.20;50.80
12006;DHT22;6062;47.294;12.182;2022-07-03T04:54:48;17.30;50.70
12006;DHT22;6062;47.294;12.182;2022-07-03T04:57:14;17.40;50.90
12006;DHT22;6062;47.294;12.182;2022-07-03T04:59:40;17.40;51.20
12006;DHT22;6062;47.294;12.182;2022-07-03T05:02:06;17.50;51.30
12006;DHT22;6062;47.294;12.182;2022-07-03T05:04:31;17.60;51.20
12006;DHT22;6062;47.294;12.182;2022-07-03T05:06:57;17.60;51.50
12006;DHT22;6062;47.294;12.182;2022-07-03T05:09:23;17.70;51.80
12006;DHT22;6062;47.294;12.182;2022-07-03T05:11:49;17.80;51.50
12006;DHT22;6062;47.294;12.182;2022-07-03T05:14:14;17.90;51.00
12006;DHT22;6062;47.294;12.182;2022-07-03T05:16:40;18.00;51.20
12006;DHT22;6062;47.294;12.182;2022-07-03T05:19:06;18.20;50.50
12006;DHT22;6062;47.294;12.182;2022-07-03T05:21:32;18.30;49.80
12006;DHT22;6062;47.294;12.182;2022-07-03T05:23:57;18.50;48.80
12006;DHT22;6062;47.294;12.182;2022-07-03T05:26:23;18.60;48.20
12006;DHT22;6062;47.294;12.182;2022-07-03T05:28:49;18.70;48.50
12006;DHT22;6062;47.294;12.182;2022-07-03T05:31:15;18.80;48.80
12006;DHT22;6062;47.294;12.182;2022-07-03T05:33:41;18.80;48.60
12006;DHT22;6062;47.294;12.182;2022-07-03T05:36:07;18.90;48.00
12006;DHT22;6062;47.294;12.182;2022-07-03T05:38:33;18.90;47.70
12006;DHT22;6062;47.294;12.182;2022-07-03T05:41:18;18.90;47.30
12006;DHT22;6062;47.294;12.182;2022-07-03T05:43:44;19.00;47.00
12006;DHT22;6062;47.294;12.182;2022-07-03T05:46:10;19.00;47.30
12006;DHT22;6062;47.294;12.182;2022-07-03T05:48:35;19.00;47.50
12006;DHT22;6062;47.294;12.182;2022-07-03T05:51:01;19.10;47.30
12006;DHT22;6062;47.294;12.182;2022-07-03T05:53:28;19.20;47.40
12006;DHT22;6062;47.294;12.182;2022-07-03T05:55:54;19.30;47.40
12006;DHT22;6062;47.294;12.182;2022-07-03T05:58:19;19.40;46.70
12006;DHT22;6062;47.294;12.182;2022-07-03T06:00:45;19.60;46.80
12006;DHT22;6062;47.294;12.182;2022-07-03T06:03:11;19.90;46.80
12006;DHT22;6062;47.294;12.182;2022-07-03T06:05:37;20.00;45.80
12006;DHT22;6062;47.294;12.182;2022-07-03T06:08:04;20.20;45.90
12006;DHT22;6062;47.294;12.182;2022-07-03T06:10:30;20.30;45.80
12006;DHT22;6062;47.294;12.182;2022-07-03T06:12:57;20.40;44.80
12006;DHT22;6062;47.294;12.182;2022-07-03T06:15:23;20.40;44.70
12006;DHT22;6062;47.294;12.182;2022-07-03T06:17:49;20.50;44.50
12006;DHT22;6062;47.294;12.182;2022-07-03T06:20:15;20.50;44.40
12006;DHT22;6062;47.294;12.182;2022-07-03T06:22:41;20.50;44.10
12006;DHT22;6062;47.294;12.182;2022-07-03T06:25:07;20.50;44.40
12006;DHT22;6062;47.294;12.182;2022-07-03T06:27:33;20.40;44.40
12006;DHT22;6062;47.294;12.182;2022-07-03T06:30:00;20.30;44.30
12006;DHT22;6062;47.294;12.182;2022-07-03T06:32:26;20.30;44.00
12006;DHT22;6062;47.294;12.182;2022-07-03T06:34:52;20.10;44.30
12006;DHT22;6062;47.294;12.182;2022-07-03T06:37:18;20.00;43.90
12006;DHT22;6062;47.294;12.182;2022-07-03T06:39:44;19.90;44.00
12006;DHT22;6062;47.294;12.182;2022-07-03T06:42:09;19.80;44.30
12006;DHT22;6062;47.294;12.182;2022-07-03T06:44:35;19.70;44.90
12006;DHT22;6062;47.294;12.182;2022-07-03T06:47:01;19.60;45.20
12006;DHT22;6062;47.294;12.182;2022-07-03T06:49:32;19.60;46.80
12006;DHT22;6062;47.294;12.182;2022-07-03T06:51:59;19.80;47.20
12006;DHT22;6062;47.294;12.182;2022-07-03T06:54:25;20.00;47.20
12006;DHT22;6062;47.294;12.182;2022-07-03T06:56:51;20.20;47.30
12006;DHT22;6062;47.294;12.182;2022-07-03T06:59:17;20.60;47.00
12006;DHT22;6062;47.294;12.182;2022-07-03T07:01:42;20.90;47.10
12006;DHT22;6062;47.294;12.182;2022-07-03T07:04:08;21.20;46.40
12006;DHT22;6062;47.294;12.182;2022-07-03T07:06:34;21.60;45.80
12006;DHT22;6062;47.294;12.182;2022-07-03T07:09:00;21.90;44.60
12006;DHT22;6062;47.294;12.182;2022-07-03T07:11:26;22.10;44.10
12006;DHT22;6062;47.294;12.182;2022-07-03T07:13:52;22.30;44.60
12006;DHT22;6062;47.294;12.182;2022-07-03T07:16:17;22.50;44.80
12006;DHT22;6062;47.294;12.182;2022-07-03T07:18:43;22.70;43.40
12006;DHT22;6062;47.294;12.182;2022-07-03T07:21:10;22.70;42.20
12006;DHT22;6062;47.294;12.182;2022-07-03T07:23:36;22.70;41.30
12006;DHT22;6062;47.294;12.182;2022-07-03T07:26:02;22.70;41.60
12006;DHT22;6062;47.294;12.182;2022-07-03T07:28:28;22.60;42.40
12006;DHT22;6062;47.294;12.182;2022-07-03T07:30:55;22.60;43.30
12006;DHT22;6062;47.294;12.182;2022-07-03T07:33:23;22.60;42.90
12006;DHT22;6062;47.294;12.182;2022-07-03T07:35:50;22.60;42.60
12006;DHT22;6062;47.294;12.182;2022-07-03T07:38:16;22.70;43.00
12006;DHT22;6062;47.294;12.182;2022-07-03T07:40:43;22.60;42.20
12006;DHT22;6062;47.294;12.182;2022-07-03T07:43:09;22.50;42.00
12006;DHT22;6062;47.294;12.182;2022-07-03T07:45:35;22.50;42.50
12006;DHT22;6062;47.294;12.182;2022-07-03T07:48:01;22.40;42.70
12006;DHT22;6062;47.294;12.182;2022-07-03T07:50:27;22.30;42.70
12006;DHT22;6062;47.294;12.182;2022-07-03T07:52:52;22.30;42.70
12006;DHT22;6062;47.294;12.182;2022-07-03T07:55:18;22.20;42.80
12006;DHT22;6062;47.294;12.182;2022-07-03T07:57:46;22.20;43.40
12006;DHT22;6062;47.294;12.182;2022-07-03T08:00:14;22.10;43.30
12006;DHT22;6062;47.294;12.182;2022-07-03T08:02:42;22.10;43.40
12006;DHT22;6062;47.294;12.182;2022-07-03T08:05:27;22.10;43.60
12006;DHT22;6062;47.294;12.182;2022-07-03T08:08:09;22.10;43.20
12006;DHT22;6062;47.294;12.182;2022-07-03T08:10:50;22.10;43.50
12006;DHT22;6062;47.294;12.182;2022-07-03T08:13:18;22.10;44.20
12006;DHT22;6062;47.294;12.182;2022-07-03T08:15:46;22.10;44.30
12006;DHT22;6062;47.294;12.182;2022-07-03T08:18:15;22.10;44.20
12006;DHT22;6062;47.294;12.182;2022-07-03T08:20:41;22.20;44.70
12006;DHT22;6062;47.294;12.182;2022-07-03T08:23:06;22.30;44.00
12006;DHT22;6062;47.294;12.182;2022-07-03T08:25:32;22.40;43.10
12006;DHT22;6062;47.294;12.182;2022-07-03T08:27:59;22.40;43.50
12006;DHT22;6062;47.294;12.182;2022-07-03T08:30:25;22.50;44.30
12006;DHT22;6062;47.294;12.182;2022-07-03T08:32:53;22.60;43.90
12006;DHT22;6062;47.294;12.182;2022-07-03T08:35:21;22.60;43.60
12006;DHT22;6062;47.294;12.182;2022-07-03T08:37:47;22.70;43.60
12006;DHT22;6062;47.294;12.182;2022-07-03T08:40:17;22.80;43.30
12006;DHT22;6062;47.294;12.182;2022-07-03T08:45:24;22.90;43.20
12006;DHT22;6062;47.294;12.182;2022-07-03T08:47:53;23.00;43.10
12006;DHT22;6062;47.294;12.182;2022-07-03T08:50:20;23.10;43.70
12006;DHT22;6062;47.294;12.182;2022-07-03T08:52:47;23.30;44.30
12006;DHT22;6062;47.294;12.182;2022-07-03T08:55:14;23.50;43.70
12006;DHT22;6062;47.294;12.182;2022-07-03T08:57:44;23.60;42.60
12006;DHT22;6062;47.294;12.182;2022-07-03T09:00:13;23.80;42.80
12006;DHT22;6062;47.294;12.182;2022-07-03T09:02:42;23.90;42.80
12006;DHT22;6062;47.294;12.182;2022-07-03T09:05:13;23.90;43.20
12006;DHT22;6062;47.294;12.182;2022-07-03T09:07:42;24.00;42.40
12006;DHT22;6062;47.294;12.182;2022-07-03T09:10:11;24.10;43.00
12006;DHT22;6062;47.294;12.182;2022-07-03T09:12:38;24.10;42.70
12006;DHT22;6062;47.294;12.182;2022-07-03T09:15:06;24.20;42.50
12006;DHT22;6062;47.294;12.182;2022-07-03T09:17:33;24.30;41.10
12006;DHT22;6062;47.294;12.182;2022-07-03T09:20:02;24.30;42.00
12006;DHT22;6062;47.294;12.182;2022-07-03T09:22:31;24.40;41.60
12006;DHT22;6062;47.294;12.182;2022-07-03T09:25:07;24.40;41.10
12006;DHT22;6062;47.294;12.182;2022-07-03T09:27:36;24.40;40.30
12006;DHT22;6062;47.294;12.182;2022-07-03T09:30:06;24.40;41.20
12006;DHT22;6062;47.294;12.182;2022-07-03T09:32:44;24.40;41.60
12006;DHT22;6062;47.294;12.182;2022-07-03T09:37:59;24.40;41.20
12006;DHT22;6062;47.294;12.182;2022-07-03T09:40:50;24.50;41.60
12006;DHT22;6062;47.294;12.182;2022-07-03T09:43:24;24.50;42.60
12006;DHT22;6062;47.294;12.182;2022-07-03T09:45:56;24.60;42.00
12006;DHT22;6062;47.294;12.182;2022-07-03T09:51:21;24.70;41.00
12006;DHT22;6062;47.294;12.182;2022-07-03T09:56:33;24.60;40.10
12006;DHT22;6062;47.294;12.182;2022-07-03T09:59:08;24.50;39.70
12006;DHT22;6062;47.294;12.182;2022-07-03T10:01:44;24.40;40.60
12006;DHT22;6062;47.294;12.182;2022-07-03T10:04:16;24.30;41.00
12006;DHT22;6062;47.294;12.182;2022-07-03T10:06:55;24.20;41.50
12006;DHT22;6062;47.294;12.182;2022-07-03T10:09:27;24.20;42.10
12006;DHT22;6062;47.294;12.182;2022-07-03T10:11:55;24.20;42.90
12006;DHT22;6062;47.294;12.182;2022-07-03T10:14:26;24.30;42.10
12006;DHT22;6062;47.294;12.182;2022-07-03T10:16:54;24.40;43.20
12006;DHT22;6062;47.294;12.182;2022-07-03T10:19:29;24.50;42.40
12006;DHT22;6062;47.294;12.182;2022-07-03T10:21:58;24.70;41.30
12006;DHT22;6062;47.294;12.182;2022-07-03T10:24:29;24.80;42.40
12006;DHT22;6062;47.294;12.182;2022-07-03T10:26:57;24.90;42.30
12006;DHT22;6062;47.294;12.182;2022-07-03T10:29:25;25.10;42.90
12006;DHT22;6062;47.294;12.182;2022-07-03T10:31:52;25.20;43.00
12006;DHT22;6062;47.294;12.182;2022-07-03T10:34:20;25.40;42.80
12006;DHT22;6062;47.294;12.182;2022-07-03T10:36:49;25.60;42.00
12006;DHT22;6062;47.294;12.182;2022-07-03T10:39:29;25.70;41.80
12006;DHT22;6062;47.294;12.182;2022-07-03T10:42:04;25.90;40.40
12006;DHT22;6062;47.294;12.182;2022-07-03T10:45:02;25.90;39.70
12006;DHT22;6062;47.294;12.182;2022-07-03T10:47:48;25.80;39.30
12006;DHT22;6062;47.294;12.182;2022-07-03T10:50:23;25.60;38.60
12006;DHT22;6062;47.294;12.182;2022-07-03T10:52:50;25.40;39.60
12006;DHT22;6062;47.294;12.182;2022-07-03T10:55:17;25.20;40.20
12006;DHT22;6062;47.294;12.182;2022-07-03T10:58:06;25.00;40.30
12006;DHT22;6062;47.294;12.182;2022-07-03T11:00:54;24.70;40.60
12006;DHT22;6062;47.294;12.182;2022-07-03T11:03:55;24.50;42.10
12006;DHT22;6062;47.294;12.182;2022-07-03T11:09:12;24.30;42.70
12006;DHT22;6062;47.294;12.182;2022-07-03T11:11:43;24.30;43.00
12006;DHT22;6062;47.294;12.182;2022-07-03T11:14:29;24.40;42.70
12006;DHT22;6062;47.294;12.182;2022-07-03T11:19:43;24.60;44.30
12006;DHT22;6062;47.294;12.182;2022-07-03T11:22:33;24.70;44.40
12006;DHT22;6062;47.294;12.182;2022-07-03T11:25:17;24.90;43.90
12006;DHT22;6062;47.294;12.182;2022-07-03T11:27:43;25.00;42.40
12006;DHT22;6062;47.294;12.182;2022-07-03T11:30:09;25.10;41.80
12006;DHT22;6062;47.294;12.182;2022-07-03T11:32:53;25.10;41.90
12006;DHT22;6062;47.294;12.182;2022-07-03T11:38:24;24.80;41.80
12006;DHT22;6062;47.294;12.182;2022-07-03T11:40:54;24.60;42.30
12006;DHT22;6062;47.294;12.182;2022-07-03T11:43:22;24.40;41.80
12006;DHT22;6062;47.294;12.182;2022-07-03T11:45:49;24.10;42.10
12006;DHT22;6062;47.294;12.182;2022-07-03T11:48:17;23.90;43.30
12006;DHT22;6062;47.294;12.182;2022-07-03T11:50:49;23.70;43.60
12006;DHT22;6062;47.294;12.182;2022-07-03T11:53:19;23.50;43.50
12006;DHT22;6062;47.294;12.182;2022-07-03T11:55:56;23.40;43.80
12006;DHT22;6062;47.294;12.182;2022-07-03T11:58:24;23.20;43.80
12006;DHT22;6062;47.294;12.182;2022-07-03T12:00:52;23.00;43.90
12006;DHT22;6062;47.294;12.182;2022-07-03T12:03:24;22.80;43.90
12006;DHT22;6062;47.294;12.182;2022-07-03T12:05:56;22.70;44.00
12006;DHT22;6062;47.294;12.182;2022-07-03T12:08:33;22.50;44.60
12006;DHT22;6062;47.294;12.182;2022-07-03T12:13:29;22.10;46.40
12006;DHT22;6062;47.294;12.182;2022-07-03T12:16:31;22.00;47.40
12006;DHT22;6062;47.294;12.182;2022-07-03T12:19:03;22.00;47.30
12006;DHT22;6062;47.294;12.182;2022-07-03T12:21:38;22.00;47.00
12006;DHT22;6062;47.294;12.182;2022-07-03T12:24:12;22.10;47.80
12006;DHT22;6062;47.294;12.182;2022-07-03T12:26:39;22.00;47.50
12006;DHT22;6062;47.294;12.182;2022-07-03T12:29:13;22.00;47.20
12006;DHT22;6062;47.294;12.182;2022-07-03T12:31:41;22.10;47.70
12006;DHT22;6062;47.294;12.182;2022-07-03T12:34:11;22.10;47.60
12006;DHT22;6062;47.294;12.182;2022-07-03T12:36:37;22.20;48.40
12006;DHT22;6062;47.294;12.182;2022-07-03T12:39:03;22.30;48.70
12006;DHT22;6062;47.294;12.182;2022-07-03T12:41:29;22.40;48.40
12006;DHT22;6062;47.294;12.182;2022-07-03T12:43:58;22.40;48.00
12006;DHT22;6062;47.294;12.182;2022-07-03T12:46:34;22.50;48.00
12006;DHT22;6062;47.294;12.182;2022-07-03T12:49:08;22.50;47.90
12006;DHT22;6062;47.294;12.182;2022-07-03T12:51:45;22.50;47.90
12006;DHT22;6062;47.294;12.182;2022-07-03T12:54:15;22.60;48.20
12006;DHT22;6062;47.294;12.182;2022-07-03T12:57:11;22.60;47.80
12006;DHT22;6062;47.294;12.182;2022-07-03T13:00:13;22.60;47.70
12006;DHT22;6062;47.294;12.182;2022-07-03T13:02:47;22.50;48.00
12006;DHT22;6062;47.294;12.182;2022-07-03T13:07:53;22.50;48.20
12006;DHT22;6062;47.294;12.182;2022-07-03T13:10:23;22.50;48.80
12006;DHT22;6062;47.294;12.182;2022-07-03T13:12:53;22.50;48.90
12006;DHT22;6062;47.294;12.182;2022-07-03T13:15:29;22.40;48.30
12006;DHT22;6062;47.294;12.182;2022-07-03T13:20:31;22.30;48.20
12006;DHT22;6062;47.294;12.182;2022-07-03T13:23:00;22.20;49.40
12006;DHT22;6062;47.294;12.182;2022-07-03T13:25:28;22.20;49.10
12006;DHT22;6062;47.294;12.182;2022-07-03T13:28:11;22.10;49.30
12006;DHT22;6062;47.294;12.182;2022-07-03T13:30:40;22.00;49.40
12006;DHT22;6062;47.294;12.182;2022-07-03T13:33:08;22.00;49.90
12006;DHT22;6062;47.294;12.182;2022-07-03T13:35:35;22.10;50.10
12006;DHT22;6062;47.294;12.182;2022-07-03T13:38:02;22.10;50.60
12006;DHT22;6062;47.294;12.182;2022-07-03T13:40:29;22.10;50.70
12006;DHT22;6062;47.294;12.182;2022-07-03T13:42:55;22.20;50.30
12006;DHT22;6062;47.294;12.182;2022-07-03T13:45:21;22.20;50.40
12006;DHT22;6062;47.294;12.182;2022-07-03T13:47:47;22.20;50.40
12006;DHT22;6062;47.294;12.182;2022-07-03T13:50:12;22.30;49.90
12006;DHT22;6062;47.294;12.182;2022-07-03T13:52:38;22.30;49.40
12006;DHT22;6062;47.294;12.182;2022-07-03T13:55:04;22.30;49.70
12006;DHT22;6062;47.294;12.182;2022-07-03T13:57:30;22.20;49.40
12006;DHT22;6062;47.294;12.182;2022-07-03T13:59:58;22.20;50.10
12006;DHT22;6062;47.294;12.182;2022-07-03T14:02:24;22.20;50.00
12006;DHT22;6062;47.294;12.182;2022-07-03T14:04:50;22.20;50.00
12006;DHT22;6062;47.294;12.182;2022-07-03T14:07:16;22.30;50.10
12006;DHT22;6062;47.294;12.182;2022-07-03T14:09:42;22.30;49.80
12006;DHT22;6062;47.294;12.182;2022-07-03T14:12:08;22.30;49.70
12006;DHT22;6062;47.294;12.182;2022-07-03T14:14:34;22.20;50.00
12006;DHT22;6062;47.294;12.182;2022-07-03T14:17:00;22.20;50.40
12006;DHT22;6062;47.294;12.182;2022-07-03T14:19:25;22.20;50.10
12006;DHT22;6062;47.294;12.182;2022-07-03T14:21:51;22.20;50.40
12006;DHT22;6062;47.294;12.182;2022-07-03T14:24:17;22.20;50.30
12006;DHT22;6062;47.294;12.182;2022-07-03T14:26:42;22.20;49.90
12006;DHT22;6062;47.294;12.182;2022-07-03T14:29:27;22.20;49.90
12006;DHT22;6062;47.294;12.182;2022-07-03T14:32:10;22.20;49.70
12006;DHT22;6062;47.294;12.182;2022-07-03T14:34:54;22.20;49.70
12006;DHT22;6062;47.294;12.182;2022-07-03T14:37:20;22.20;49.80
12006;DHT22;6062;47.294;12.182;2022-07-03T14:39:47;22.20;50.10
12006;DHT22;6062;47.294;12.182;2022-07-03T14:42:14;22.10;49.70
12006;DHT22;6062;47.294;12.182;2022-07-03T14:44:41;22.10;50.10
12006;DHT22;6062;47.294;12.182;2022-07-03T14:47:06;22.10;50.30
12006;DHT22;6062;47.294;12.182;2022-07-03T14:49:32;22.00;50.20
12006;DHT22;6062;47.294;12.182;2022-07-03T14:52:03;22.10;50.40
12006;DHT22;6062;47.294;12.182;2022-07-03T14:54:30;22.10;50.90
12006;DHT22;6062;47.294;12.182;2022-07-03T14:56:58;22.10;50.10
12006;DHT22;6062;47.294;12.182;2022-07-03T15:02:49;22.10;49.80
12006;DHT22;6062;47.294;12.182;2022-07-03T15:05:33;22.10;50.10
12006;DHT22;6062;47.294;12.182;2022-07-03T15:08:04;22.10;50.00
12006;DHT22;6062;47.294;12.182;2022-07-03T15:10:39;22.00;50.30
12006;DHT22;6062;47.294;12.182;2022-07-03T15:13:05;22.00;50.20
12006;DHT22;6062;47.294;12.182;2022-07-03T15:15:32;22.00;50.60
12006;DHT22;6062;47.294;12.182;2022-07-03T15:18:00;22.00;50.70
12006;DHT22;6062;47.294;12.182;2022-07-03T15:20:35;22.00;50.20
12006;DHT22;6062;47.294;12.182;2022-07-03T15:23:03;21.90;49.60
12006;DHT22;6062;47.294;12.182;2022-07-03T15:25:32;21.80;49.70
12006;DHT22;6062;47.294;12.182;2022-07-03T15:28:01;21.80;50.10
12006;DHT22;6062;47.294;12.182;2022-07-03T15:30:27;21.70;50.10
12006;DHT22;6062;47.294;12.182;2022-07-03T15:32:54;21.60;50.80
12006;DHT22;6062;47.294;12.182;2022-07-03T15:35:22;21.50;50.80
12006;DHT22;6062;47.294;12.182;2022-07-03T15:38:13;21.50;50.70
12006;DHT22;6062;47.294;12.182;2022-07-03T15:40:53;21.40;51.10
12006;DHT22;6062;47.294;12.182;2022-07-03T15:43:37;21.40;51.40
12006;DHT22;6062;47.294;12.182;2022-07-03T15:46:30;21.30;51.90
12006;DHT22;6062;47.294;12.182;2022-07-03T15:49:23;21.30;51.90
12006;DHT22;6062;47.294;12.182;2022-07-03T15:52:19;21.20;51.60
12006;DHT22;6062;47.294;12.182;2022-07-03T15:57:50;21.20;51.90
12006;DHT22;6062;47.294;12.182;2022-07-03T16:00:23;21.20;51.90
12006;DHT22;6062;47.294;12.182;2022-07-03T16:05:41;21.20;52.10
12006;DHT22;6062;47.294;12.182;2022-07-03T16:08:10;21.30;52.10
12006;DHT22;6062;47.294;12.182;2022-07-03T16:10:39;21.20;51.90
12006;DHT22;6062;47.294;12.182;2022-07-03T16:13:07;21.30;52.20
12006;DHT22;6062;47.294;12.182;2022-07-03T16:15:41;21.30;52.60
12006;DHT22;6062;47.294;12.182;2022-07-03T16:18:09;21.30;52.40
12006;DHT22;6062;47.294;12.182;2022-07-03T16:20:36;21.40;52.70
12006;DHT22;6062;47.294;12.182;2022-07-03T16:23:06;21.40;52.60
12006;DHT22;6062;47.294;12.182;2022-07-03T16:25:35;21.40;52.70
12006;DHT22;6062;47.294;12.182;2022-07-03T16:28:04;21.50;52.10
12006;DHT22;6062;47.294;12.182;2022-07-03T16:30:34;21.60;51.70
12006;DHT22;6062;47.294;12.182;2022-07-03T16:33:04;21.60;51.10
12006;DHT22;6062;47.294;12.182;2022-07-03T16:35:39;21.60;51.00
12006;DHT22;6062;47.294;12.182;2022-07-03T16:38:10;21.50;51.20
12006;DHT22;6062;47.294;12.182;2022-07-03T16:40:40;21.50;51.40
12006;DHT22;6062;47.294;12.182;2022-07-03T16:43:11;21.50;51.70
12006;DHT22;6062;47.294;12.182;2022-07-03T16:45:40;21.40;51.80
12006;DHT22;6062;47.294;12.182;2022-07-03T16:48:11;21.30;51.60
12006;DHT22;6062;47.294;12.182;2022-07-03T16:50:55;21.30;51.80
12006;DHT22;6062;47.294;12.182;2022-07-03T16:53:23;21.20;51.90
12006;DHT22;6062;47.294;12.182;2022-07-03T16:55:50;21.20;51.90
12006;DHT22;6062;47.294;12.182;2022-07-03T16:58:16;21.10;52.30
12006;DHT22;6062;47.294;12.182;2022-07-03T17:00:43;21.10;52.60
12006;DHT22;6062;47.294;12.182;2022-07-03T17:03:11;21.10;52.70
12006;DHT22;6062;47.294;12.182;2022-07-03T17:05:38;21.00;52.80